St. Paul, Alberta

Past 24 Hour Conditions

Date / Time
(MDT)
Conditions Temp
(°F)
Humidity
(%)
Dew Point
(°F)
Wind
(mph)
Pressure
(inches)
Visibility
(miles)
04 September 2015
10:00 N/A 44 50 27 NNE 7 N/A N/A
9:00 N/A 42 49 24 N 3 N/A N/A
8:00 N/A 37 47 19 NW 2 N/A N/A
7:00 N/A 34   45 15 WNW 6 N/A N/A
6:00 N/A 35 45 16 NNW 3 N/A N/A
5:00 N/A 39 46 19 N 4 N/A N/A
4:00 N/A 40 46 21 NNW 6 N/A N/A
3:00 N/A 41 46 21 NNW 5 N/A N/A
2:00 N/A 37 45 17 NNW 5 N/A N/A
1:00 N/A 39 45 19 NNW 4 N/A N/A
00:00 N/A 42 45 22 N 5 N/A N/A
03 September 2015
23:00 N/A 41 44 21 NNW 4 N/A N/A
22:00 N/A 44 44 24 NNW 5 N/A N/A
21:00 N/A 44 43 23 NNW 5 N/A N/A
20:00 N/A 50 40 27 NNW 4 N/A N/A
19:00 N/A 55 37 29 NNW 7 N/A N/A
18:00 N/A 55 36 29 N 10 N/A N/A
17:00 N/A 55 38 30 NNW 12 N/A N/A
16:00 N/A 57   37 31 WNW 10 N/A N/A
15:00 N/A 54 39 30 N 7 N/A N/A
14:00 N/A 55 38 30 NW 10 N/A N/A
13:00 N/A 56 40 32 WNW 12 N/A N/A
12:00 N/A 55 39 30 W 4 N/A N/A
11:00 N/A 53 42 30 WNW 13 N/A N/A
10:00 N/A 50 46 30 W 9 N/A N/A
N/A Not available
↑ Highest temperature
↓ Lowest temperature

If you require additional historical weather information, please visit Climate Data Online.

What we are doing

Date modified: